sensor_id;sensor_type;location;lat;lon;timestamp;temperature;humidity
7686;DHT22;3885;51.474;-2.576;2023-03-01T00:05:57;6.50;99.90
7686;DHT22;3885;51.474;-2.576;2023-03-01T00:11:00;6.50;99.90
7686;DHT22;3885;51.474;-2.576;2023-03-01T00:13:28;6.50;99.90
7686;DHT22;3885;51.474;-2.576;2023-03-01T00:15:55;6.50;99.90
7686;DHT22;3885;51.474;-2.576;2023-03-01T00:23:18;6.50;99.90
7686;DHT22;3885;51.474;-2.576;2023-03-01T00:33:06;6.30;99.90
7686;DHT22;3885;51.474;-2.576;2023-03-01T00:35:35;6.30;99.90
7686;DHT22;3885;51.474;-2.576;2023-03-01T00:38:03;6.30;99.90
7686;DHT22;3885;51.474;-2.576;2023-03-01T00:57:46;6.30;99.90
7686;DHT22;3885;51.474;-2.576;2023-03-01T01:00:13;6.30;99.90
7686;DHT22;3885;51.474;-2.576;2023-03-01T01:05:08;6.30;99.90
7686;DHT22;3885;51.474;-2.576;2023-03-01T01:10:05;6.30;99.90
7686;DHT22;3885;51.474;-2.576;2023-03-01T01:15:00;6.20;99.90
7686;DHT22;3885;51.474;-2.576;2023-03-01T01:19:54;6.30;99.90
7686;DHT22;3885;51.474;-2.576;2023-03-01T01:27:16;6.20;99.90
7686;DHT22;3885;51.474;-2.576;2023-03-01T01:37:05;6.20;99.90
7686;DHT22;3885;51.474;-2.576;2023-03-01T01:39:33;6.20;99.90
7686;DHT22;3885;51.474;-2.576;2023-03-01T01:42:00;6.20;99.90
7686;DHT22;3885;51.474;-2.576;2023-03-01T01:46:58;6.30;99.90
7686;DHT22;3885;51.474;-2.576;2023-03-01T01:49:31;6.20;99.90
7686;DHT22;3885;51.474;-2.576;2023-03-01T02:02:00;6.10;99.90
7686;DHT22;3885;51.474;-2.576;2023-03-01T02:14:19;6.10;99.90
7686;DHT22;3885;51.474;-2.576;2023-03-01T02:21:54;6.00;99.90
7686;DHT22;3885;51.474;-2.576;2023-03-01T02:26:56;6.00;99.90
7686;DHT22;3885;51.474;-2.576;2023-03-01T02:31:57;5.90;99.90
7686;DHT22;3885;51.474;-2.576;2023-03-01T02:36:57;5.90;99.90
7686;DHT22;3885;51.474;-2.576;2023-03-01T02:39:27;5.80;99.90
7686;DHT22;3885;51.474;-2.576;2023-03-01T02:41:56;5.80;99.90
7686;DHT22;3885;51.474;-2.576;2023-03-01T02:44:25;5.80;99.90
7686;DHT22;3885;51.474;-2.576;2023-03-01T02:46:54;5.80;99.90
7686;DHT22;3885;51.474;-2.576;2023-03-01T02:49:24;5.80;99.90
7686;DHT22;3885;51.474;-2.576;2023-03-01T02:54:38;5.70;99.90
7686;DHT22;3885;51.474;-2.576;2023-03-01T02:57:07;5.80;99.90
7686;DHT22;3885;51.474;-2.576;2023-03-01T03:11:54;5.80;99.90
7686;DHT22;3885;51.474;-2.576;2023-03-01T03:14:21;5.80;99.90
7686;DHT22;3885;51.474;-2.576;2023-03-01T03:16:50;5.90;99.90
7686;DHT22;3885;51.474;-2.576;2023-03-01T03:19:18;5.90;99.90
7686;DHT22;3885;51.474;-2.576;2023-03-01T03:26:39;5.90;99.90
7686;DHT22;3885;51.474;-2.576;2023-03-01T03:29:06;5.80;99.90
7686;DHT22;3885;51.474;-2.576;2023-03-01T03:31:34;5.80;99.90
7686;DHT22;3885;51.474;-2.576;2023-03-01T03:34:02;5.80;99.90
7686;DHT22;3885;51.474;-2.576;2023-03-01T03:46:18;5.90;99.90
7686;DHT22;3885;51.474;-2.576;2023-03-01T03:56:11;5.90;99.90
7686;DHT22;3885;51.474;-2.576;2023-03-01T04:13:47;5.90;99.90
7686;DHT22;3885;51.474;-2.576;2023-03-01T04:16:14;5.90;99.90
7686;DHT22;3885;51.474;-2.576;2023-03-01T04:21:08;5.90;99.90
7686;DHT22;3885;51.474;-2.576;2023-03-01T04:23:38;5.90;99.90
7686;DHT22;3885;51.474;-2.576;2023-03-01T04:26:06;5.80;99.90
7686;DHT22;3885;51.474;-2.576;2023-03-01T04:28:35;5.70;99.90
7686;DHT22;3885;51.474;-2.576;2023-03-01T04:31:04;5.80;99.90
7686;DHT22;3885;51.474;-2.576;2023-03-01T04:33:38;5.80;99.90
7686;DHT22;3885;51.474;-2.576;2023-03-01T04:36:08;5.70;99.90
7686;DHT22;3885;51.474;-2.576;2023-03-01T04:38:37;5.70;99.90
7686;DHT22;3885;51.474;-2.576;2023-03-01T04:41:04;5.60;99.90
7686;DHT22;3885;51.474;-2.576;2023-03-01T04:43:32;5.60;99.90
7686;DHT22;3885;51.474;-2.576;2023-03-01T04:46:03;5.60;99.90
7686;DHT22;3885;51.474;-2.576;2023-03-01T04:48:31;5.60;99.90
7686;DHT22;3885;51.474;-2.576;2023-03-01T04:50:59;5.70;99.90
7686;DHT22;3885;51.474;-2.576;2023-03-01T04:53:26;5.60;99.90
7686;DHT22;3885;51.474;-2.576;2023-03-01T04:58:23;5.70;99.90
7686;DHT22;3885;51.474;-2.576;2023-03-01T05:00:51;5.70;99.90
7686;DHT22;3885;51.474;-2.576;2023-03-01T05:10:45;5.70;99.90
7686;DHT22;3885;51.474;-2.576;2023-03-01T05:30:34;5.60;99.90
7686;DHT22;3885;51.474;-2.576;2023-03-01T05:35:29;5.60;99.90
7686;DHT22;3885;51.474;-2.576;2023-03-01T05:45:22;5.60;99.90
7686;DHT22;3885;51.474;-2.576;2023-03-01T05:50:19;5.50;99.90
7686;DHT22;3885;51.474;-2.576;2023-03-01T05:57:41;5.60;99.90
7686;DHT22;3885;51.474;-2.576;2023-03-01T06:00:09;5.50;99.90
7686;DHT22;3885;51.474;-2.576;2023-03-01T06:12:30;5.50;99.90
7686;DHT22;3885;51.474;-2.576;2023-03-01T06:22:21;5.50;99.90
7686;DHT22;3885;51.474;-2.576;2023-03-01T06:29:42;5.30;99.90
7686;DHT22;3885;51.474;-2.576;2023-03-01T06:34:37;5.30;99.90
7686;DHT22;3885;51.474;-2.576;2023-03-01T06:37:04;5.30;99.90
7686;DHT22;3885;51.474;-2.576;2023-03-01T06:39:32;5.30;99.90
7686;DHT22;3885;51.474;-2.576;2023-03-01T06:41:59;5.30;99.90
7686;DHT22;3885;51.474;-2.576;2023-03-01T06:49:21;5.30;99.90
7686;DHT22;3885;51.474;-2.576;2023-03-01T06:51:48;5.40;99.90
7686;DHT22;3885;51.474;-2.576;2023-03-01T06:59:13;5.40;99.90
7686;DHT22;3885;51.474;-2.576;2023-03-01T07:06:35;5.30;99.90
7686;DHT22;3885;51.474;-2.576;2023-03-01T07:16:25;5.30;99.90
7686;DHT22;3885;51.474;-2.576;2023-03-01T07:23:47;5.40;99.90
7686;DHT22;3885;51.474;-2.576;2023-03-01T07:26:14;5.40;99.90
7686;DHT22;3885;51.474;-2.576;2023-03-01T07:28:41;5.50;99.90
7686;DHT22;3885;51.474;-2.576;2023-03-01T07:31:09;5.50;99.90
7686;DHT22;3885;51.474;-2.576;2023-03-01T07:38:31;5.40;99.90
7686;DHT22;3885;51.474;-2.576;2023-03-01T07:53:17;5.60;99.90
7686;DHT22;3885;51.474;-2.576;2023-03-01T08:03:06;5.80;99.90
7686;DHT22;3885;51.474;-2.576;2023-03-01T08:08:01;5.80;99.90
7686;DHT22;3885;51.474;-2.576;2023-03-01T08:10:28;5.80;99.90
7686;DHT22;3885;51.474;-2.576;2023-03-01T08:12:55;5.90;99.90
7686;DHT22;3885;51.474;-2.576;2023-03-01T08:17:49;5.90;99.90
7686;DHT22;3885;51.474;-2.576;2023-03-01T08:27:39;6.00;99.90
7686;DHT22;3885;51.474;-2.576;2023-03-01T08:30:07;6.00;99.90
7686;DHT22;3885;51.474;-2.576;2023-03-01T08:32:38;5.90;99.90
7686;DHT22;3885;51.474;-2.576;2023-03-01T08:35:06;6.00;99.90
7686;DHT22;3885;51.474;-2.576;2023-03-01T08:42:33;6.20;99.90
7686;DHT22;3885;51.474;-2.576;2023-03-01T08:49:54;6.20;99.90
7686;DHT22;3885;51.474;-2.576;2023-03-01T08:52:21;6.20;99.90
7686;DHT22;3885;51.474;-2.576;2023-03-01T08:57:18;6.30;99.90
7686;DHT22;3885;51.474;-2.576;2023-03-01T09:02:13;6.40;99.90
7686;DHT22;3885;51.474;-2.576;2023-03-01T09:04:41;6.50;99.90
7686;DHT22;3885;51.474;-2.576;2023-03-01T09:26:54;6.40;99.90
7686;DHT22;3885;51.474;-2.576;2023-03-01T09:29:21;6.60;99.90
7686;DHT22;3885;51.474;-2.576;2023-03-01T09:31:49;6.80;99.90
7686;DHT22;3885;51.474;-2.576;2023-03-01T09:36:48;7.00;99.90
7686;DHT22;3885;51.474;-2.576;2023-03-01T09:39:15;7.10;99.90
7686;DHT22;3885;51.474;-2.576;2023-03-01T09:41:47;7.10;99.90
7686;DHT22;3885;51.474;-2.576;2023-03-01T09:44:30;7.10;99.90
7686;DHT22;3885;51.474;-2.576;2023-03-01T09:47:00;6.90;99.90
7686;DHT22;3885;51.474;-2.576;2023-03-01T09:49:28;7.00;99.90
7686;DHT22;3885;51.474;-2.576;2023-03-01T09:51:59;7.10;99.90
7686;DHT22;3885;51.474;-2.576;2023-03-01T09:54:27;7.00;99.90
7686;DHT22;3885;51.474;-2.576;2023-03-01T09:57:13;7.00;99.90
7686;DHT22;3885;51.474;-2.576;2023-03-01T10:00:00;7.10;99.90
7686;DHT22;3885;51.474;-2.576;2023-03-01T10:02:38;7.10;99.90
7686;DHT22;3885;51.474;-2.576;2023-03-01T10:05:14;7.10;99.90
7686;DHT22;3885;51.474;-2.576;2023-03-01T10:07:48;7.20;99.90
7686;DHT22;3885;51.474;-2.576;2023-03-01T10:10:25;7.30;99.90
7686;DHT22;3885;51.474;-2.576;2023-03-01T10:15:27;7.60;99.90
7686;DHT22;3885;51.474;-2.576;2023-03-01T10:20:28;7.60;99.90
7686;DHT22;3885;51.474;-2.576;2023-03-01T10:22:56;7.60;99.90
7686;DHT22;3885;51.474;-2.576;2023-03-01T10:25:41;7.60;99.90
7686;DHT22;3885;51.474;-2.576;2023-03-01T10:28:16;7.50;99.90
7686;DHT22;3885;51.474;-2.576;2023-03-01T10:30:43;7.60;99.90
7686;DHT22;3885;51.474;-2.576;2023-03-01T10:33:16;7.60;99.90
7686;DHT22;3885;51.474;-2.576;2023-03-01T10:35:44;7.50;99.90
7686;DHT22;3885;51.474;-2.576;2023-03-01T10:38:13;7.30;99.90
7686;DHT22;3885;51.474;-2.576;2023-03-01T10:40:51;7.30;99.90
7686;DHT22;3885;51.474;-2.576;2023-03-01T10:43:19;7.30;99.90
7686;DHT22;3885;51.474;-2.576;2023-03-01T10:45:47;7.30;99.90
7686;DHT22;3885;51.474;-2.576;2023-03-01T10:48:17;7.20;99.90
7686;DHT22;3885;51.474;-2.576;2023-03-01T10:50:46;7.30;99.90
7686;DHT22;3885;51.474;-2.576;2023-03-01T10:53:23;7.30;99.90
7686;DHT22;3885;51.474;-2.576;2023-03-01T10:56:03;7.30;99.90
7686;DHT22;3885;51.474;-2.576;2023-03-01T10:58:31;7.30;99.90
7686;DHT22;3885;51.474;-2.576;2023-03-01T11:01:00;7.50;99.90
7686;DHT22;3885;51.474;-2.576;2023-03-01T11:03:30;7.60;99.90
7686;DHT22;3885;51.474;-2.576;2023-03-01T11:06:04;7.40;99.90
7686;DHT22;3885;51.474;-2.576;2023-03-01T11:13:54;7.70;99.90
7686;DHT22;3885;51.474;-2.576;2023-03-01T11:16:27;7.80;99.90
7686;DHT22;3885;51.474;-2.576;2023-03-01T11:19:13;8.00;99.90
7686;DHT22;3885;51.474;-2.576;2023-03-01T11:21:42;8.00;99.90
7686;DHT22;3885;51.474;-2.576;2023-03-01T11:26:41;8.10;99.90
7686;DHT22;3885;51.474;-2.576;2023-03-01T11:29:16;7.90;99.90
7686;DHT22;3885;51.474;-2.576;2023-03-01T11:31:46;8.00;99.90
7686;DHT22;3885;51.474;-2.576;2023-03-01T11:34:17;8.00;99.90
7686;DHT22;3885;51.474;-2.576;2023-03-01T11:36:51;8.10;99.90
7686;DHT22;3885;51.474;-2.576;2023-03-01T11:39:27;8.10;99.90
7686;DHT22;3885;51.474;-2.576;2023-03-01T11:42:04;8.00;99.90
7686;DHT22;3885;51.474;-2.576;2023-03-01T11:44:35;8.10;99.90
7686;DHT22;3885;51.474;-2.576;2023-03-01T11:47:30;8.20;99.90
7686;DHT22;3885;51.474;-2.576;2023-03-01T11:50:17;8.20;99.90
7686;DHT22;3885;51.474;-2.576;2023-03-01T11:53:08;8.30;99.90
7686;DHT22;3885;51.474;-2.576;2023-03-01T11:55:51;8.30;99.90
7686;DHT22;3885;51.474;-2.576;2023-03-01T11:58:30;8.30;99.90
7686;DHT22;3885;51.474;-2.576;2023-03-01T12:01:12;8.30;99.90
7686;DHT22;3885;51.474;-2.576;2023-03-01T12:03:58;8.30;99.90
7686;DHT22;3885;51.474;-2.576;2023-03-01T12:06:38;8.40;99.90
7686;DHT22;3885;51.474;-2.576;2023-03-01T12:09:27;8.50;99.90
7686;DHT22;3885;51.474;-2.576;2023-03-01T12:12:11;8.50;99.90
7686;DHT22;3885;51.474;-2.576;2023-03-01T12:14:52;8.60;99.90
7686;DHT22;3885;51.474;-2.576;2023-03-01T12:20:20;8.40;99.90
7686;DHT22;3885;51.474;-2.576;2023-03-01T12:23:11;8.30;99.90
7686;DHT22;3885;51.474;-2.576;2023-03-01T12:28:23;8.10;99.90
7686;DHT22;3885;51.474;-2.576;2023-03-01T12:31:15;8.10;99.90
7686;DHT22;3885;51.474;-2.576;2023-03-01T12:33:49;8.10;99.90
7686;DHT22;3885;51.474;-2.576;2023-03-01T12:39:32;8.40;99.90
7686;DHT22;3885;51.474;-2.576;2023-03-01T12:42:08;8.50;99.90
7686;DHT22;3885;51.474;-2.576;2023-03-01T12:45:02;8.50;99.90
7686;DHT22;3885;51.474;-2.576;2023-03-01T12:50:20;8.70;99.90
7686;DHT22;3885;51.474;-2.576;2023-03-01T12:52:50;8.50;99.90
7686;DHT22;3885;51.474;-2.576;2023-03-01T12:55:28;8.30;99.90
7686;DHT22;3885;51.474;-2.576;2023-03-01T12:58:02;8.30;99.90
7686;DHT22;3885;51.474;-2.576;2023-03-01T13:00:35;8.20;99.90
7686;DHT22;3885;51.474;-2.576;2023-03-01T13:03:13;8.20;99.90
7686;DHT22;3885;51.474;-2.576;2023-03-01T13:05:51;8.20;99.90
7686;DHT22;3885;51.474;-2.576;2023-03-01T13:08:27;8.20;99.90
7686;DHT22;3885;51.474;-2.576;2023-03-01T13:11:00;8.10;99.90
7686;DHT22;3885;51.474;-2.576;2023-03-01T13:21:03;7.90;99.90
7686;DHT22;3885;51.474;-2.576;2023-03-01T13:23:34;7.90;99.90
7686;DHT22;3885;51.474;-2.576;2023-03-01T13:34:46;8.30;99.90
7686;DHT22;3885;51.474;-2.576;2023-03-01T13:37:41;8.60;99.90
7686;DHT22;3885;51.474;-2.576;2023-03-01T13:43:30;8.80;99.90
7686;DHT22;3885;51.474;-2.576;2023-03-01T13:45:57;8.70;99.90
7686;DHT22;3885;51.474;-2.576;2023-03-01T13:50:58;8.80;99.90
7686;DHT22;3885;51.474;-2.576;2023-03-01T13:53:29;8.60;99.90
7686;DHT22;3885;51.474;-2.576;2023-03-01T13:56:00;8.60;99.90
7686;DHT22;3885;51.474;-2.576;2023-03-01T13:58:30;8.60;99.90
7686;DHT22;3885;51.474;-2.576;2023-03-01T14:01:00;8.50;99.90
7686;DHT22;3885;51.474;-2.576;2023-03-01T14:03:28;8.40;99.90
7686;DHT22;3885;51.474;-2.576;2023-03-01T14:06:02;8.40;99.90
7686;DHT22;3885;51.474;-2.576;2023-03-01T14:08:32;8.40;99.90
7686;DHT22;3885;51.474;-2.576;2023-03-01T14:14:32;8.40;99.90
7686;DHT22;3885;51.474;-2.576;2023-03-01T14:17:16;8.40;99.90
7686;DHT22;3885;51.474;-2.576;2023-03-01T14:22:20;8.40;99.90
7686;DHT22;3885;51.474;-2.576;2023-03-01T14:24:49;8.40;99.90
7686;DHT22;3885;51.474;-2.576;2023-03-01T14:27:17;8.40;99.90
7686;DHT22;3885;51.474;-2.576;2023-03-01T14:29:55;8.30;99.90
7686;DHT22;3885;51.474;-2.576;2023-03-01T14:32:25;8.20;99.90
7686;DHT22;3885;51.474;-2.576;2023-03-01T14:34:52;8.30;99.90
7686;DHT22;3885;51.474;-2.576;2023-03-01T14:37:21;8.30;99.90
7686;DHT22;3885;51.474;-2.576;2023-03-01T14:39:49;8.50;99.90
7686;DHT22;3885;51.474;-2.576;2023-03-01T14:42:16;8.60;99.90
7686;DHT22;3885;51.474;-2.576;2023-03-01T14:44:46;8.60;99.90
7686;DHT22;3885;51.474;-2.576;2023-03-01T14:47:16;8.70;99.90
7686;DHT22;3885;51.474;-2.576;2023-03-01T14:49:50;8.70;99.90
7686;DHT22;3885;51.474;-2.576;2023-03-01T14:54:49;8.60;99.90
7686;DHT22;3885;51.474;-2.576;2023-03-01T14:59:49;8.60;99.90
7686;DHT22;3885;51.474;-2.576;2023-03-01T15:04:49;8.60;99.90
7686;DHT22;3885;51.474;-2.576;2023-03-01T15:07:17;8.50;99.90
7686;DHT22;3885;51.474;-2.576;2023-03-01T15:09:44;8.40;99.90
7686;DHT22;3885;51.474;-2.576;2023-03-01T15:12:36;8.40;99.90
7686;DHT22;3885;51.474;-2.576;2023-03-01T15:15:20;8.40;99.90
7686;DHT22;3885;51.474;-2.576;2023-03-01T15:17:52;8.50;99.90
7686;DHT22;3885;51.474;-2.576;2023-03-01T15:20:23;8.60;99.90
7686;DHT22;3885;51.474;-2.576;2023-03-01T15:22:51;8.60;99.90
7686;DHT22;3885;51.474;-2.576;2023-03-01T15:25:20;8.60;99.90
7686;DHT22;3885;51.474;-2.576;2023-03-01T15:27:50;8.60;99.90
7686;DHT22;3885;51.474;-2.576;2023-03-01T15:38:03;8.70;99.90
7686;DHT22;3885;51.474;-2.576;2023-03-01T15:40:30;8.70;99.90
7686;DHT22;3885;51.474;-2.576;2023-03-01T15:42:58;8.60;99.90
7686;DHT22;3885;51.474;-2.576;2023-03-01T15:47:57;8.60;99.90
7686;DHT22;3885;51.474;-2.576;2023-03-01T15:50:29;8.70;99.90
7686;DHT22;3885;51.474;-2.576;2023-03-01T15:52:58;8.60;99.90
7686;DHT22;3885;51.474;-2.576;2023-03-01T15:55:26;8.70;99.90
7686;DHT22;3885;51.474;-2.576;2023-03-01T15:57:59;8.60;99.90
7686;DHT22;3885;51.474;-2.576;2023-03-01T16:07:51;8.50;99.90
7686;DHT22;3885;51.474;-2.576;2023-03-01T16:10:18;8.40;99.90
7686;DHT22;3885;51.474;-2.576;2023-03-01T16:15:16;8.30;99.90
7686;DHT22;3885;51.474;-2.576;2023-03-01T16:17:43;8.40;99.90
7686;DHT22;3885;51.474;-2.576;2023-03-01T16:20:12;8.40;99.90
7686;DHT22;3885;51.474;-2.576;2023-03-01T16:22:41;8.30;99.90
7686;DHT22;3885;51.474;-2.576;2023-03-01T16:25:09;8.30;99.90
7686;DHT22;3885;51.474;-2.576;2023-03-01T16:27:37;8.30;99.90
7686;DHT22;3885;51.474;-2.576;2023-03-01T16:30:05;8.30;99.90
7686;DHT22;3885;51.474;-2.576;2023-03-01T16:32:32;8.40;99.90
7686;DHT22;3885;51.474;-2.576;2023-03-01T16:34:59;8.40;99.90
7686;DHT22;3885;51.474;-2.576;2023-03-01T16:39:55;8.30;99.90
7686;DHT22;3885;51.474;-2.576;2023-03-01T16:42:21;8.30;99.90
7686;DHT22;3885;51.474;-2.576;2023-03-01T16:44:49;8.30;99.90
7686;DHT22;3885;51.474;-2.576;2023-03-01T16:47:20;8.30;99.90
7686;DHT22;3885;51.474;-2.576;2023-03-01T16:52:15;8.30;99.90
7686;DHT22;3885;51.474;-2.576;2023-03-01T16:54:43;8.30;99.90
7686;DHT22;3885;51.474;-2.576;2023-03-01T16:57:10;8.40;99.90
7686;DHT22;3885;51.474;-2.576;2023-03-01T16:59:37;8.40;99.90
7686;DHT22;3885;51.474;-2.576;2023-03-01T17:02:04;8.40;99.90
7686;DHT22;3885;51.474;-2.576;2023-03-01T17:04:32;8.30;99.90
7686;DHT22;3885;51.474;-2.576;2023-03-01T17:06:59;8.30;99.90
7686;DHT22;3885;51.474;-2.576;2023-03-01T17:09:26;8.20;99.90
7686;DHT22;3885;51.474;-2.576;2023-03-01T17:14:21;8.30;99.90
7686;DHT22;3885;51.474;-2.576;2023-03-01T17:19:15;8.30;99.90
7686;DHT22;3885;51.474;-2.576;2023-03-01T17:21:44;8.20;99.90
7686;DHT22;3885;51.474;-2.576;2023-03-01T17:26:39;8.20;99.90
7686;DHT22;3885;51.474;-2.576;2023-03-01T17:29:07;8.10;99.90
7686;DHT22;3885;51.474;-2.576;2023-03-01T17:31:36;8.00;99.90
7686;DHT22;3885;51.474;-2.576;2023-03-01T17:34:02;7.90;99.90
7686;DHT22;3885;51.474;-2.576;2023-03-01T17:38:59;7.90;99.90
7686;DHT22;3885;51.474;-2.576;2023-03-01T17:41:25;7.80;99.90
7686;DHT22;3885;51.474;-2.576;2023-03-01T17:43:53;7.80;99.90
7686;DHT22;3885;51.474;-2.576;2023-03-01T17:48:49;7.60;99.90
7686;DHT22;3885;51.474;-2.576;2023-03-01T17:56:10;7.60;99.90
7686;DHT22;3885;51.474;-2.576;2023-03-01T17:58:38;7.60;99.90
7686;DHT22;3885;51.474;-2.576;2023-03-01T18:01:09;7.50;99.90
7686;DHT22;3885;51.474;-2.576;2023-03-01T18:03:38;7.50;99.90
7686;DHT22;3885;51.474;-2.576;2023-03-01T18:11:04;7.50;99.90
7686;DHT22;3885;51.474;-2.576;2023-03-01T18:13:32;7.30;99.90
7686;DHT22;3885;51.474;-2.576;2023-03-01T18:20:56;7.30;99.90
7686;DHT22;3885;51.474;-2.576;2023-03-01T18:25:50;7.30;99.90
7686;DHT22;3885;51.474;-2.576;2023-03-01T18:33:21;7.20;99.90
7686;DHT22;3885;51.474;-2.576;2023-03-01T18:35:48;7.20;99.90
7686;DHT22;3885;51.474;-2.576;2023-03-01T18:40:44;7.30;99.90
7686;DHT22;3885;51.474;-2.576;2023-03-01T18:43:12;7.20;99.90
7686;DHT22;3885;51.474;-2.576;2023-03-01T18:50:34;7.10;99.90
7686;DHT22;3885;51.474;-2.576;2023-03-01T18:53:00;7.10;99.90
7686;DHT22;3885;51.474;-2.576;2023-03-01T18:55:29;7.00;99.90
7686;DHT22;3885;51.474;-2.576;2023-03-01T19:00:23;7.00;99.90
7686;DHT22;3885;51.474;-2.576;2023-03-01T19:05:18;7.10;99.90
7686;DHT22;3885;51.474;-2.576;2023-03-01T19:07:45;7.10;99.90
7686;DHT22;3885;51.474;-2.576;2023-03-01T19:10:12;7.10;99.90
7686;DHT22;3885;51.474;-2.576;2023-03-01T19:12:41;7.00;99.90
7686;DHT22;3885;51.474;-2.576;2023-03-01T19:15:08;7.00;99.90
7686;DHT22;3885;51.474;-2.576;2023-03-01T19:20:03;7.00;99.90
7686;DHT22;3885;51.474;-2.576;2023-03-01T19:22:30;7.00;99.90
7686;DHT22;3885;51.474;-2.576;2023-03-01T19:24:57;7.00;99.90
7686;DHT22;3885;51.474;-2.576;2023-03-01T19:27:24;7.00;99.90
7686;DHT22;3885;51.474;-2.576;2023-03-01T19:32:19;7.00;99.90
7686;DHT22;3885;51.474;-2.576;2023-03-01T19:34:46;7.00;99.90
7686;DHT22;3885;51.474;-2.576;2023-03-01T19:37:13;7.00;99.90
7686;DHT22;3885;51.474;-2.576;2023-03-01T19:39:40;6.90;99.90
7686;DHT22;3885;51.474;-2.576;2023-03-01T19:42:08;6.90;99.90
7686;DHT22;3885;51.474;-2.576;2023-03-01T19:47:04;6.90;99.90
7686;DHT22;3885;51.474;-2.576;2023-03-01T19:49:31;6.90;99.90
7686;DHT22;3885;51.474;-2.576;2023-03-01T19:54:26;7.00;99.90
7686;DHT22;3885;51.474;-2.576;2023-03-01T19:56:53;7.00;99.90
7686;DHT22;3885;51.474;-2.576;2023-03-01T19:59:20;6.90;99.90
7686;DHT22;3885;51.474;-2.576;2023-03-01T20:01:49;6.90;99.90
7686;DHT22;3885;51.474;-2.576;2023-03-01T20:09:14;6.80;99.90
7686;DHT22;3885;51.474;-2.576;2023-03-01T20:16:37;6.90;99.90
7686;DHT22;3885;51.474;-2.576;2023-03-01T20:19:04;6.90;99.90
7686;DHT22;3885;51.474;-2.576;2023-03-01T20:24:00;6.70;99.90
7686;DHT22;3885;51.474;-2.576;2023-03-01T20:26:27;6.70;99.90
7686;DHT22;3885;51.474;-2.576;2023-03-01T20:28:55;6.80;99.90
7686;DHT22;3885;51.474;-2.576;2023-03-01T20:31:24;6.80;99.90
7686;DHT22;3885;51.474;-2.576;2023-03-01T20:33:54;6.90;99.90
7686;DHT22;3885;51.474;-2.576;2023-03-01T20:36:22;7.00;99.90
7686;DHT22;3885;51.474;-2.576;2023-03-01T20:38:52;7.00;99.90
7686;DHT22;3885;51.474;-2.576;2023-03-01T20:41:19;6.90;99.90
7686;DHT22;3885;51.474;-2.576;2023-03-01T20:46:20;6.80;99.90
7686;DHT22;3885;51.474;-2.576;2023-03-01T20:48:49;6.80;99.90
7686;DHT22;3885;51.474;-2.576;2023-03-01T20:51:16;6.70;99.90
7686;DHT22;3885;51.474;-2.576;2023-03-01T20:53:44;6.80;99.90
7686;DHT22;3885;51.474;-2.576;2023-03-01T20:56:14;6.80;99.90
7686;DHT22;3885;51.474;-2.576;2023-03-01T20:58:42;6.80;99.90
7686;DHT22;3885;51.474;-2.576;2023-03-01T21:01:10;6.80;99.90
7686;DHT22;3885;51.474;-2.576;2023-03-01T21:03:41;6.90;99.90
7686;DHT22;3885;51.474;-2.576;2023-03-01T21:06:08;6.80;99.90
7686;DHT22;3885;51.474;-2.576;2023-03-01T21:08:35;6.80;99.90
7686;DHT22;3885;51.474;-2.576;2023-03-01T21:11:03;6.80;99.90
7686;DHT22;3885;51.474;-2.576;2023-03-01T21:13:32;6.80;99.90
7686;DHT22;3885;51.474;-2.576;2023-03-01T21:18:28;6.80;99.90
7686;DHT22;3885;51.474;-2.576;2023-03-01T21:20:57;6.80;99.90
7686;DHT22;3885;51.474;-2.576;2023-03-01T21:23:25;6.80;99.90
7686;DHT22;3885;51.474;-2.576;2023-03-01T21:25:59;6.70;99.90
7686;DHT22;3885;51.474;-2.576;2023-03-01T21:28:26;6.70;99.90
7686;DHT22;3885;51.474;-2.576;2023-03-01T21:31:02;6.80;99.90
7686;DHT22;3885;51.474;-2.576;2023-03-01T21:36:00;6.80;99.90
7686;DHT22;3885;51.474;-2.576;2023-03-01T21:38:31;6.80;99.90
7686;DHT22;3885;51.474;-2.576;2023-03-01T21:43:29;6.70;99.90
7686;DHT22;3885;51.474;-2.576;2023-03-01T21:46:00;6.60;99.90
7686;DHT22;3885;51.474;-2.576;2023-03-01T21:48:28;6.60;99.90
7686;DHT22;3885;51.474;-2.576;2023-03-01T21:50:55;6.70;99.90
7686;DHT22;3885;51.474;-2.576;2023-03-01T21:53:21;6.60;99.90
7686;DHT22;3885;51.474;-2.576;2023-03-01T21:58:16;6.60;99.90
7686;DHT22;3885;51.474;-2.576;2023-03-01T22:00:43;6.60;99.90
7686;DHT22;3885;51.474;-2.576;2023-03-01T22:03:12;6.60;99.90
7686;DHT22;3885;51.474;-2.576;2023-03-01T22:05:39;6.50;99.90
7686;DHT22;3885;51.474;-2.576;2023-03-01T22:08:06;6.50;99.90
7686;DHT22;3885;51.474;-2.576;2023-03-01T22:10:38;6.50;99.90
7686;DHT22;3885;51.474;-2.576;2023-03-01T22:13:08;6.60;99.90
7686;DHT22;3885;51.474;-2.576;2023-03-01T22:15:38;6.60;99.90
7686;DHT22;3885;51.474;-2.576;2023-03-01T22:18:06;6.60;99.90
7686;DHT22;3885;51.474;-2.576;2023-03-01T22:20:34;6.50;99.90
7686;DHT22;3885;51.474;-2.576;2023-03-01T22:23:01;6.40;99.90
7686;DHT22;3885;51.474;-2.576;2023-03-01T22:25:29;6.40;99.90
7686;DHT22;3885;51.474;-2.576;2023-03-01T22:27:56;6.40;99.90
7686;DHT22;3885;51.474;-2.576;2023-03-01T22:30:23;6.40;99.90
7686;DHT22;3885;51.474;-2.576;2023-03-01T22:32:50;6.40;99.90
7686;DHT22;3885;51.474;-2.576;2023-03-01T22:35:17;6.50;99.90
7686;DHT22;3885;51.474;-2.576;2023-03-01T22:37:45;6.40;99.90
7686;DHT22;3885;51.474;-2.576;2023-03-01T22:40:12;6.40;99.90
7686;DHT22;3885;51.474;-2.576;2023-03-01T22:42:39;6.30;99.90
7686;DHT22;3885;51.474;-2.576;2023-03-01T22:45:07;6.40;99.90
7686;DHT22;3885;51.474;-2.576;2023-03-01T22:47:34;6.40;99.90
7686;DHT22;3885;51.474;-2.576;2023-03-01T22:50:03;6.40;99.90
7686;DHT22;3885;51.474;-2.576;2023-03-01T22:52:30;6.40;99.90
7686;DHT22;3885;51.474;-2.576;2023-03-01T23:04:50;6.30;99.90
7686;DHT22;3885;51.474;-2.576;2023-03-01T23:07:20;6.30;99.90
7686;DHT22;3885;51.474;-2.576;2023-03-01T23:09:46;6.30;99.90
7686;DHT22;3885;51.474;-2.576;2023-03-01T23:12:15;6.30;99.90
7686;DHT22;3885;51.474;-2.576;2023-03-01T23:14:42;6.30;99.90
7686;DHT22;3885;51.474;-2.576;2023-03-01T23:17:09;6.40;99.90
7686;DHT22;3885;51.474;-2.576;2023-03-01T23:27:00;6.40;99.90
7686;DHT22;3885;51.474;-2.576;2023-03-01T23:29:29;6.40;99.90
7686;DHT22;3885;51.474;-2.576;2023-03-01T23:39:19;6.40;99.90
7686;DHT22;3885;51.474;-2.576;2023-03-01T23:44:15;6.40;99.90
7686;DHT22;3885;51.474;-2.576;2023-03-01T23:46:44;6.40;99.90
7686;DHT22;3885;51.474;-2.576;2023-03-01T23:51:39;6.50;99.90
7686;DHT22;3885;51.474;-2.576;2023-03-01T23:54:10;6.50;99.90
7686;DHT22;3885;51.474;-2.576;2023-03-01T23:56:39;6.40;99.90
